createdAt,value
2018-11-20T18:22:13.701Z,5.06
2018-11-20T18:23:13.624Z,5.04
2018-11-20T18:24:13.612Z,5.06
2018-11-20T18:25:13.993Z,4.97
2018-11-20T18:26:13.589Z,5.03
2018-11-20T18:27:18.677Z,5.12
2018-11-20T18:28:13.568Z,5.06
2018-11-20T18:29:13.562Z,5.09
2018-11-20T18:30:13.554Z,5.07
2018-11-20T18:31:13.602Z,5.12
2018-11-20T18:32:13.550Z,5.09
2018-11-20T18:33:13.519Z,5.18
2018-11-20T18:34:13.505Z,5.18
2018-11-20T18:35:13.496Z,5.13
2018-11-20T18:36:13.556Z,5.12
2018-11-20T18:37:13.476Z,5.07
2018-11-20T18:38:13.463Z,5.06
2018-11-20T18:39:13.456Z,5.07
2018-11-20T18:40:13.443Z,5.04
2018-11-20T18:41:13.434Z,5.02
2018-11-20T18:42:14.226Z,5.12
2018-11-20T18:43:13.412Z,5.00
2018-11-20T18:44:13.401Z,5.06
2018-11-20T18:45:13.390Z,5.02
2018-11-20T18:46:13.383Z,5.03
2018-11-20T18:47:13.435Z,5.03
2018-11-20T18:48:13.365Z,4.88
2018-11-20T18:49:13.348Z,4.91
2018-11-20T18:50:13.341Z,4.88
2018-11-20T18:51:13.327Z,4.86
2018-11-20T18:52:13.389Z,4.88
2018-11-20T18:53:13.303Z,4.78
2018-11-20T18:54:13.294Z,4.72
2018-11-20T18:55:13.282Z,4.80
2018-11-20T18:56:13.271Z,4.82
2018-11-20T18:57:13.267Z,4.78
2018-11-20T18:58:13.316Z,4.73
2018-11-20T18:59:13.266Z,4.75
2018-11-20T19:00:13.231Z,4.75
2018-11-20T19:01:13.235Z,4.70
2018-11-20T19:02:13.211Z,4.78
2018-11-20T19:03:13.727Z,4.69
2018-11-20T19:04:13.184Z,4.73
2018-11-20T19:05:13.174Z,4.72
2018-11-20T19:06:13.166Z,4.67
2018-11-20T19:07:13.159Z,4.70
2018-11-20T19:08:13.227Z,4.70
2018-11-20T19:09:13.139Z,4.70
2018-11-20T19:10:13.121Z,4.66
2018-11-20T19:11:13.119Z,4.67
2018-11-20T19:12:13.121Z,4.66
2018-11-20T19:13:13.165Z,4.60
2018-11-20T19:14:13.099Z,4.55
2018-11-20T19:15:13.067Z,4.48
2018-11-20T19:16:13.060Z,4.62
2018-11-20T19:17:13.050Z,4.60
2018-11-20T19:18:13.102Z,4.59
2018-11-20T19:19:13.029Z,4.58
2018-11-20T19:20:13.017Z,4.65
2018-11-20T19:21:13.011Z,4.58
2018-11-20T19:22:12.999Z,4.59
2018-11-20T19:23:13.395Z,4.63
2018-11-20T19:24:13.224Z,4.58
2018-11-20T19:25:12.977Z,4.66
2018-11-20T19:26:12.962Z,4.66
2018-11-20T19:27:12.955Z,4.63
2018-11-20T19:28:12.930Z,4.66
2018-11-20T19:29:12.988Z,4.67
2018-11-20T19:30:12.912Z,4.62
2018-11-20T19:31:12.905Z,4.67
2018-11-20T19:32:12.916Z,4.65
2018-11-20T19:33:12.890Z,4.69
2018-11-20T19:34:12.934Z,4.59
2018-11-20T19:35:12.860Z,4.62
2018-11-20T19:36:12.850Z,4.59
2018-11-20T19:37:12.838Z,4.65
2018-11-20T19:38:12.826Z,4.52
2018-11-20T19:39:12.888Z,4.65
2018-11-20T19:40:12.807Z,4.55
2018-11-20T19:41:12.800Z,4.48
2018-11-20T19:42:12.795Z,4.52
2018-11-20T19:43:12.776Z,4.47
2018-11-20T19:44:12.769Z,4.52
2018-11-20T19:45:13.217Z,4.51
2018-11-20T19:46:12.742Z,4.58
2018-11-20T19:47:12.737Z,4.51
2018-11-20T19:48:12.719Z,4.51
2018-11-20T19:49:12.710Z,4.51
2018-11-20T19:50:12.778Z,4.41
2018-11-20T19:51:12.690Z,4.40
2018-11-20T19:52:12.691Z,4.42
2018-11-20T19:53:12.674Z,4.45
2018-11-20T19:54:12.656Z,4.41
2018-11-20T19:55:12.647Z,4.42
2018-11-20T19:56:12.706Z,4.42
2018-11-20T19:57:12.627Z,4.47
2018-11-20T19:58:12.621Z,4.44
2018-11-20T19:59:12.615Z,4.50
2018-11-20T20:00:12.594Z,4.41
2018-11-20T20:01:12.643Z,4.44
2018-11-20T20:02:12.573Z,4.48
2018-11-20T20:03:12.565Z,4.42
2018-11-20T20:04:12.552Z,4.47
2018-11-20T20:05:12.540Z,4.52
2018-11-20T20:06:12.724Z,4.47
2018-11-20T20:07:12.522Z,4.51
2018-11-20T20:08:12.540Z,4.51
2018-11-20T20:09:12.501Z,4.58
2018-11-20T20:10:17.638Z,4.50
2018-11-20T20:11:12.552Z,4.65
2018-11-20T20:12:12.465Z,4.58
2018-11-20T20:13:12.460Z,4.55
2018-11-20T20:14:12.447Z,4.47
2018-11-20T20:15:12.439Z,4.45
2018-11-20T20:16:12.445Z,4.44
2018-11-20T20:17:12.479Z,4.58
2018-11-20T20:18:12.403Z,4.47
2018-11-20T20:19:12.404Z,4.66
2018-11-20T20:20:12.382Z,4.54
2018-11-20T20:21:12.371Z,4.60
2018-11-20T20:22:12.427Z,4.63
2018-11-20T20:23:12.349Z,4.65
2018-11-20T20:24:12.342Z,4.60
2018-11-20T20:25:12.329Z,4.50
2018-11-20T20:26:12.325Z,4.58
2018-11-20T20:27:13.143Z,4.48
2018-11-20T20:28:12.357Z,4.55
2018-11-20T20:29:12.287Z,4.47
2018-11-20T20:30:12.277Z,4.55
2018-11-20T20:31:12.264Z,4.45
2018-11-20T20:32:12.299Z,4.51
2018-11-20T20:33:12.319Z,4.48
2018-11-20T20:34:12.269Z,4.42
2018-11-20T20:35:12.224Z,4.44
2018-11-20T20:36:12.213Z,4.37
2018-11-20T20:37:12.208Z,4.42
2018-11-20T20:38:12.263Z,4.42
2018-11-20T20:39:12.188Z,4.51
2018-11-20T20:40:12.173Z,4.40
2018-11-20T20:41:12.161Z,4.36
2018-11-20T20:42:12.170Z,4.41
2018-11-20T20:43:12.138Z,4.44
2018-11-20T20:44:12.195Z,4.40
2018-11-20T20:45:12.118Z,4.44
2018-11-20T20:46:12.105Z,4.42
2018-11-20T20:47:12.119Z,4.34
2018-11-20T20:48:12.646Z,4.44
2018-11-20T20:49:12.131Z,4.37
2018-11-20T20:50:12.063Z,4.37
2018-11-20T20:51:12.054Z,4.45
2018-11-20T20:52:12.043Z,4.33
2018-11-20T20:53:12.050Z,4.41
2018-11-20T20:54:12.635Z,4.37
2018-11-20T20:55:12.009Z,4.40
2018-11-20T20:56:12.005Z,4.42
2018-11-20T20:57:12.000Z,4.51
2018-11-20T20:58:11.979Z,4.47
2018-11-20T20:59:12.040Z,4.50
2018-11-20T21:00:11.958Z,4.48
2018-11-20T21:01:11.945Z,4.48
2018-11-20T21:02:11.936Z,4.52
2018-11-20T21:03:12.639Z,4.51
2018-11-20T21:04:11.922Z,4.52
2018-11-20T21:05:11.972Z,4.54
2018-11-20T21:06:11.894Z,4.63
2018-11-20T21:07:11.885Z,4.69
2018-11-20T21:08:11.870Z,4.62
2018-11-20T21:09:12.629Z,4.66
2018-11-20T21:10:11.938Z,4.66
2018-11-20T21:11:11.842Z,4.63
2018-11-20T21:12:11.832Z,4.67
2018-11-20T21:13:11.822Z,4.67
2018-11-20T21:14:11.807Z,4.69
2018-11-20T21:15:11.795Z,4.75
2018-11-20T21:16:11.858Z,4.78
2018-11-20T21:17:11.781Z,4.82
2018-11-20T21:18:11.766Z,4.78
2018-11-20T21:19:11.757Z,4.82
2018-11-20T21:20:11.745Z,4.82
2018-11-20T21:21:15.630Z,4.86
2018-11-20T21:22:11.721Z,4.84
2018-11-20T21:23:11.717Z,4.78
2018-11-20T21:24:11.703Z,4.86
2018-11-20T21:25:11.715Z,4.88
2018-11-20T21:26:11.746Z,4.82
2018-11-20T21:27:11.670Z,4.88
2018-11-20T21:28:11.659Z,4.88
2018-11-20T21:29:11.649Z,4.84
2018-11-20T21:30:12.635Z,4.86
2018-11-20T21:31:11.690Z,4.92
2018-11-20T21:32:11.617Z,4.92
2018-11-20T21:33:11.613Z,4.85
2018-11-20T21:34:11.596Z,4.91
2018-11-20T21:35:11.610Z,4.88
2018-11-20T21:36:11.654Z,4.88
2018-11-20T21:37:11.567Z,4.88
2018-11-20T21:38:11.553Z,4.85
2018-11-20T21:39:11.542Z,4.85
2018-11-20T21:40:11.549Z,4.91
2018-11-20T21:41:11.594Z,4.86
2018-11-20T21:42:11.514Z,4.94
2018-11-20T21:43:11.503Z,4.89
2018-11-20T21:44:11.489Z,4.94
2018-11-20T21:45:15.575Z,4.86
2018-11-20T21:46:11.468Z,4.92
2018-11-20T21:47:11.524Z,4.86
2018-11-20T21:48:11.447Z,4.88
2018-11-20T21:49:11.444Z,4.86
2018-11-20T21:50:11.426Z,4.88
2018-11-20T21:51:12.126Z,4.92
2018-11-20T21:52:11.476Z,4.94
2018-11-20T21:53:11.397Z,4.86
2018-11-20T21:54:11.394Z,4.91
2018-11-20T21:55:11.375Z,4.91
2018-11-20T21:56:11.372Z,4.86
2018-11-20T21:57:11.425Z,4.97
2018-11-20T21:58:11.345Z,4.92
2018-11-20T21:59:11.328Z,4.96
2018-11-20T22:00:11.321Z,4.97
2018-11-20T22:01:11.326Z,4.86
2018-11-20T22:02:11.367Z,4.96
2018-11-20T22:03:11.286Z,5.00
2018-11-20T22:04:11.278Z,4.97
2018-11-20T22:05:11.274Z,4.96
2018-11-20T22:06:11.253Z,4.94
2018-11-20T22:07:11.245Z,4.88
2018-11-20T22:08:11.302Z,4.94
2018-11-20T22:09:11.221Z,4.97
2018-11-20T22:10:11.217Z,4.86
2018-11-20T22:11:11.203Z,4.86
2018-11-20T22:12:12.121Z,4.84
2018-11-20T22:13:11.248Z,4.99
2018-11-20T22:14:11.186Z,4.85
2018-11-20T22:15:11.159Z,4.96
2018-11-20T22:16:11.146Z,4.96
2018-11-20T22:17:11.137Z,4.96
2018-11-20T22:18:11.197Z,4.89
2018-11-20T22:19:11.116Z,4.99
2018-11-20T22:20:11.107Z,5.03
2018-11-20T22:21:11.100Z,4.96
2018-11-20T22:22:11.084Z,4.92
2018-11-20T22:23:11.146Z,5.00
2018-11-20T22:24:11.063Z,4.97
2018-11-20T22:25:11.057Z,4.97
2018-11-20T22:26:11.045Z,4.92
2018-11-20T22:27:11.033Z,4.96
2018-11-20T22:28:11.114Z,4.86
2018-11-20T22:29:11.014Z,4.89
2018-11-20T22:30:11.003Z,4.88
2018-11-20T22:31:10.994Z,4.89
2018-11-20T22:32:10.980Z,4.94
2018-11-20T22:33:11.624Z,4.96
2018-11-20T22:34:11.025Z,4.91
2018-11-20T22:35:10.950Z,4.99
2018-11-20T22:36:10.940Z,4.94
2018-11-20T22:37:10.926Z,4.92
2018-11-20T22:38:10.917Z,4.86
2018-11-20T22:39:10.970Z,4.92
2018-11-20T22:40:10.897Z,4.88
2018-11-20T22:41:10.886Z,4.88
2018-11-20T22:42:10.875Z,4.89
2018-11-20T22:43:10.869Z,4.92
2018-11-20T22:44:10.923Z,4.88
2018-11-20T22:45:10.848Z,4.92
2018-11-20T22:46:10.836Z,4.88
2018-11-20T22:47:10.819Z,4.89
2018-11-20T22:48:10.810Z,4.88
2018-11-20T22:49:10.899Z,4.82
2018-11-20T22:50:10.794Z,4.91
2018-11-20T22:51:10.783Z,4.92
2018-11-20T22:52:10.770Z,4.88
2018-11-20T22:53:10.763Z,4.99
2018-11-20T22:54:11.613Z,4.85
2018-11-20T22:55:10.793Z,4.85
2018-11-20T22:56:10.733Z,4.78
2018-11-20T22:57:10.714Z,4.84
2018-11-20T22:58:10.708Z,4.78
2018-11-20T22:59:10.706Z,4.80
2018-11-20T23:00:10.764Z,4.82
2018-11-20T23:01:10.672Z,4.80
2018-11-20T23:02:10.666Z,4.82
2018-11-20T23:03:10.662Z,4.73
2018-11-20T23:04:11.610Z,4.80
2018-11-20T23:05:10.696Z,4.80
2018-11-20T23:06:10.621Z,4.77
2018-11-20T23:07:10.610Z,4.69
2018-11-20T23:08:10.603Z,4.69
2018-11-20T23:09:10.597Z,4.69
2018-11-20T23:10:10.577Z,4.62
2018-11-20T23:11:10.632Z,4.63
2018-11-20T23:12:10.556Z,4.54
2018-11-20T23:13:10.546Z,4.55
2018-11-20T23:14:10.535Z,4.67
2018-11-20T23:15:11.112Z,4.65
2018-11-20T23:16:10.577Z,4.55
2018-11-20T23:17:10.526Z,4.59
2018-11-20T23:18:10.491Z,4.52
2018-11-20T23:19:10.487Z,4.59
2018-11-20T23:20:10.475Z,4.62
2018-11-20T23:21:10.529Z,4.60
2018-11-20T23:22:10.462Z,4.54
2018-11-20T23:23:10.440Z,4.50
2018-11-20T23:24:10.437Z,4.48
2018-11-20T23:25:10.421Z,4.48
2018-11-20T23:26:10.473Z,4.52
2018-11-20T23:27:11.047Z,4.50
2018-11-20T23:28:10.384Z,4.45
2018-11-20T23:29:10.380Z,4.48
2018-11-20T23:30:10.365Z,4.48
2018-11-20T23:31:10.372Z,4.37
2018-11-20T23:32:10.411Z,4.40
2018-11-20T23:33:10.333Z,4.42
2018-11-20T23:34:10.324Z,4.42
2018-11-20T23:35:10.310Z,4.42
2018-11-20T23:36:11.106Z,4.37
2018-11-20T23:37:10.355Z,4.32
2018-11-20T23:38:10.277Z,4.36
2018-11-20T23:39:10.273Z,4.26
2018-11-20T23:40:10.264Z,4.24
2018-11-20T23:41:10.247Z,4.41
2018-11-20T23:42:10.303Z,4.24
2018-11-20T23:43:10.226Z,4.27
2018-11-20T23:44:10.217Z,4.30
2018-11-20T23:45:10.221Z,4.33
2018-11-20T23:46:10.198Z,4.24
2018-11-20T23:47:10.250Z,4.41
2018-11-20T23:48:10.175Z,4.27
2018-11-20T23:49:15.243Z,4.24
2018-11-20T23:50:10.154Z,4.29
2018-11-20T23:51:10.144Z,4.24
2018-11-20T23:52:10.199Z,4.34
2018-11-20T23:53:10.140Z,4.24
2018-11-20T23:54:10.112Z,4.26
2018-11-20T23:55:10.100Z,4.22
2018-11-20T23:56:10.089Z,4.16
2018-11-20T23:57:10.679Z,4.20
2018-11-20T23:58:10.074Z,4.12
2018-11-20T23:59:10.056Z,4.09
